JAL4001 RJFK-ROAH
Flight info
| Callsign | JAL4001 |
|---|---|
| Flight time | 1h 2m |
| Altitude | 38000 |
| Route | HKC Y45 ONC Y525 IHEYA |
| Aircraft | B738/M-SDE2E3FGHIRWXY/LB1 |
Departure
| Time | 2026-04-28 14:48 |
|---|---|
| Airport | Kagoshima Airport (RJFK) |
Arrival
| Time | 2026-04-28 15:50 |
|---|---|
| Airport | Naha International Airport (ROAH) |
| Time | Latitude | Longitude | Altitude | Speed | Heading |
|---|---|---|---|---|---|
| 2026-04-28 14:33 | 31.80039 | 130.71738 | 893 ft | 0 kts | 240° |
| 2026-04-28 14:39 | 31.80040 | 130.71740 | 957 ft | 3 kts | 240° |
| 2026-04-28 14:39 | 31.80054 | 130.71766 | 894 ft | 4 kts | 235° |
| 2026-04-28 14:40 | 31.80068 | 130.71792 | 936 ft | 4 kts | 235° |
| 2026-04-28 14:40 | 31.80078 | 130.71806 | 912 ft | 4 kts | 201° |
| 2026-04-28 14:40 | 31.80108 | 130.71797 | 894 ft | 4 kts | 150° |
| 2026-04-28 14:40 | 31.80113 | 130.71794 | 894 ft | 0 kts | 152° |
| 2026-04-28 14:44 | 31.80112 | 130.71794 | 894 ft | 1 kts | 151° |
| 2026-04-28 14:44 | 31.80099 | 130.71810 | 894 ft | 5 kts | 130° |
| 2026-04-28 14:44 | 31.80070 | 130.71863 | 895 ft | 10 kts | 122° |
| 2026-04-28 14:44 | 31.80015 | 130.71938 | 892 ft | 13 kts | 137° |
| 2026-04-28 14:45 | 31.79994 | 130.72033 | 891 ft | 11 kts | 66° |
| 2026-04-28 14:45 | 31.80001 | 130.72045 | 891 ft | 0 kts | 56° |
| 2026-04-28 14:46 | 31.80010 | 130.72062 | 891 ft | 6 kts | 59° |
| 2026-04-28 14:46 | 31.80042 | 130.72127 | 891 ft | 9 kts | 44° |
| 2026-04-28 14:47 | 31.80058 | 130.72130 | 891 ft | 3 kts | 355° |
| 2026-04-28 14:47 | 31.80066 | 130.72126 | 892 ft | 0 kts | 334° |
| 2026-04-28 14:47 | 31.80257 | 130.71995 | 895 ft | 87 kts | 330° |
| 2026-04-28 14:48 | 31.81057 | 130.71459 | 1291 ft | 151 kts | 329° |
| 2026-04-28 14:48 | 31.81927 | 130.70849 | 2817 ft | 142 kts | 327° |
| 2026-04-28 14:48 | 31.82810 | 130.70232 | 3993 ft | 157 kts | 325° |
| 2026-04-28 14:48 | 31.83476 | 130.69084 | 4580 ft | 194 kts | 281° |
| 2026-04-28 14:49 | 31.83181 | 130.67403 | 4951 ft | 233 kts | 239° |
| 2026-04-28 14:49 | 31.81871 | 130.66196 | 5760 ft | 251 kts | 211° |
| 2026-04-28 14:49 | 31.80249 | 130.65237 | 6482 ft | 266 kts | 210° |
| 2026-04-28 14:49 | 31.78588 | 130.64318 | 7783 ft | 262 kts | 210° |
| 2026-04-28 14:50 | 31.76961 | 130.63361 | 9131 ft | 261 kts | 212° |
| 2026-04-28 14:50 | 31.75366 | 130.62324 | 10370 ft | 263 kts | 214° |
| 2026-04-28 14:50 | 31.73790 | 130.61233 | 11580 ft | 262 kts | 216° |
| 2026-04-28 14:50 | 31.72237 | 130.60128 | 12817 ft | 261 kts | 217° |
| 2026-04-28 14:51 | 31.70687 | 130.59014 | 14024 ft | 262 kts | 217° |
| 2026-04-28 14:51 | 31.69082 | 130.57939 | 15025 ft | 271 kts | 211° |
| 2026-04-28 14:51 | 31.67318 | 130.57107 | 16090 ft | 276 kts | 207° |
| 2026-04-28 14:51 | 31.65497 | 130.56326 | 17101 ft | 280 kts | 207° |
| 2026-04-28 14:52 | 31.63658 | 130.55522 | 18106 ft | 284 kts | 207° |
| 2026-04-28 14:52 | 31.61817 | 130.54699 | 18989 ft | 289 kts | 207° |
| 2026-04-28 14:52 | 31.59927 | 130.53844 | 19832 ft | 294 kts | 208° |
| 2026-04-28 14:52 | 31.57995 | 130.52980 | 20672 ft | 299 kts | 207° |
| 2026-04-28 14:53 | 31.56028 | 130.52112 | 21513 ft | 305 kts | 207° |
| 2026-04-28 14:53 | 31.54021 | 130.51229 | 22321 ft | 310 kts | 207° |
| 2026-04-28 14:53 | 31.51979 | 130.50331 | 23125 ft | 316 kts | 207° |
| 2026-04-28 14:53 | 31.49904 | 130.49419 | 23887 ft | 320 kts | 207° |
| 2026-04-28 14:54 | 31.47806 | 130.48497 | 24574 ft | 324 kts | 207° |
| 2026-04-28 14:54 | 31.45687 | 130.47567 | 25325 ft | 326 kts | 207° |
| 2026-04-28 14:54 | 31.43556 | 130.46632 | 26056 ft | 329 kts | 207° |
| 2026-04-28 14:54 | 31.41393 | 130.45681 | 26688 ft | 334 kts | 207° |
| 2026-04-28 14:55 | 31.39235 | 130.44733 | 27381 ft | 337 kts | 207° |
| 2026-04-28 14:55 | 31.37024 | 130.43762 | 28011 ft | 342 kts | 207° |
| 2026-04-28 14:55 | 31.34780 | 130.42777 | 28655 ft | 346 kts | 207° |
| 2026-04-28 14:55 | 31.32511 | 130.41782 | 29307 ft | 349 kts | 207° |
| 2026-04-28 14:56 | 31.30224 | 130.40780 | 29925 ft | 353 kts | 207° |
| 2026-04-28 14:56 | 31.27909 | 130.39765 | 30453 ft | 357 kts | 207° |
| 2026-04-28 14:56 | 31.25573 | 130.38715 | 30932 ft | 361 kts | 208° |
| 2026-04-28 14:56 | 31.23260 | 130.37629 | 31397 ft | 365 kts | 208° |
| 2026-04-28 14:57 | 31.20867 | 130.36492 | 31863 ft | 369 kts | 208° |
| 2026-04-28 14:57 | 31.19288 | 130.35742 | 32168 ft | 371 kts | 208° |
| 2026-04-28 14:57 | 31.16092 | 130.34231 | 32748 ft | 377 kts | 208° |
| 2026-04-28 14:57 | 31.13648 | 130.33082 | 33180 ft | 381 kts | 208° |
| 2026-04-28 14:58 | 31.11175 | 130.31921 | 33603 ft | 385 kts | 208° |
| 2026-04-28 14:58 | 31.08679 | 130.30751 | 34008 ft | 388 kts | 208° |
| 2026-04-28 14:58 | 31.06159 | 130.29571 | 34366 ft | 392 kts | 208° |
| 2026-04-28 14:58 | 31.03607 | 130.28380 | 34696 ft | 396 kts | 208° |
| 2026-04-28 14:59 | 31.01036 | 130.27182 | 35023 ft | 400 kts | 208° |
| 2026-04-28 14:59 | 30.98435 | 130.25971 | 35347 ft | 404 kts | 208° |
| 2026-04-28 14:59 | 30.95810 | 130.24750 | 35670 ft | 407 kts | 208° |
| 2026-04-28 14:59 | 30.93167 | 130.23522 | 35979 ft | 411 kts | 209° |
| 2026-04-28 15:00 | 30.90498 | 130.22282 | 36286 ft | 414 kts | 209° |
| 2026-04-28 15:00 | 30.87810 | 130.21033 | 36581 ft | 417 kts | 209° |
| 2026-04-28 15:00 | 30.85100 | 130.19775 | 36870 ft | 421 kts | 209° |
| 2026-04-28 15:00 | 30.82403 | 130.18524 | 37149 ft | 424 kts | 209° |
| 2026-04-28 15:01 | 30.79655 | 130.17250 | 37432 ft | 427 kts | 209° |
| 2026-04-28 15:01 | 30.76950 | 130.15997 | 37724 ft | 429 kts | 209° |
| 2026-04-28 15:01 | 30.74172 | 130.14711 | 38017 ft | 430 kts | 209° |
| 2026-04-28 15:02 | 30.68538 | 130.12101 | 38074 ft | 443 kts | 209° |
| 2026-04-28 15:02 | 30.62731 | 130.09417 | 38084 ft | 455 kts | 208° |
| 2026-04-28 15:03 | 30.56795 | 130.06683 | 38074 ft | 459 kts | 208° |
| 2026-04-28 15:03 | 30.50838 | 130.03980 | 38072 ft | 460 kts | 208° |
| 2026-04-28 15:04 | 30.44877 | 130.01286 | 38071 ft | 459 kts | 208° |
| 2026-04-28 15:04 | 30.38961 | 129.98609 | 38069 ft | 459 kts | 208° |
| 2026-04-28 15:05 | 30.33009 | 129.95929 | 38069 ft | 459 kts | 207° |
| 2026-04-28 15:05 | 30.26988 | 129.93405 | 38070 ft | 460 kts | 206° |
| 2026-04-28 15:06 | 30.20950 | 129.90927 | 38074 ft | 460 kts | 206° |
| 2026-04-28 15:06 | 30.14923 | 129.88433 | 38075 ft | 460 kts | 206° |
| 2026-04-28 15:07 | 30.08904 | 129.85930 | 38075 ft | 459 kts | 206° |
| 2026-04-28 15:07 | 30.02957 | 129.83461 | 38079 ft | 459 kts | 206° |
| 2026-04-28 15:08 | 29.96969 | 129.80906 | 38069 ft | 458 kts | 208° |
| 2026-04-28 15:08 | 29.91126 | 129.78192 | 38073 ft | 457 kts | 208° |
| 2026-04-28 15:09 | 29.85273 | 129.75454 | 38078 ft | 457 kts | 208° |
| 2026-04-28 15:09 | 29.79374 | 129.72726 | 38072 ft | 456 kts | 208° |
| 2026-04-28 15:10 | 29.73472 | 129.70017 | 38078 ft | 456 kts | 208° |
| 2026-04-28 15:10 | 29.67564 | 129.67311 | 38075 ft | 456 kts | 208° |
| 2026-04-28 15:11 | 29.61659 | 129.64609 | 38075 ft | 456 kts | 208° |
| 2026-04-28 15:11 | 29.55793 | 129.61927 | 38076 ft | 456 kts | 208° |
| 2026-04-28 15:12 | 29.49890 | 129.59232 | 38072 ft | 456 kts | 208° |
| 2026-04-28 15:12 | 29.43991 | 129.56541 | 38075 ft | 456 kts | 208° |
| 2026-04-28 15:13 | 29.38090 | 129.53853 | 38081 ft | 456 kts | 208° |
| 2026-04-28 15:13 | 29.32183 | 129.51184 | 38077 ft | 457 kts | 206° |
| 2026-04-28 15:14 | 29.26186 | 129.48729 | 38076 ft | 458 kts | 205° |
| 2026-04-28 15:14 | 29.20167 | 129.46329 | 38075 ft | 458 kts | 205° |
| 2026-04-28 15:15 | 29.14183 | 129.43911 | 38077 ft | 458 kts | 205° |
| 2026-04-28 15:15 | 29.08239 | 129.41493 | 38077 ft | 458 kts | 205° |
| 2026-04-28 15:16 | 29.02215 | 129.39045 | 38078 ft | 459 kts | 205° |
| 2026-04-28 15:16 | 28.96265 | 129.36597 | 38077 ft | 458 kts | 206° |
| 2026-04-28 15:17 | 28.90349 | 129.33994 | 38085 ft | 458 kts | 207° |
| 2026-04-28 15:17 | 28.84406 | 129.31355 | 38087 ft | 458 kts | 207° |
| 2026-04-28 15:18 | 28.78460 | 129.28738 | 38086 ft | 458 kts | 207° |
| 2026-04-28 15:18 | 28.72569 | 129.26161 | 38088 ft | 459 kts | 207° |
| 2026-04-28 15:19 | 28.66609 | 129.23558 | 38090 ft | 459 kts | 207° |
| 2026-04-28 15:19 | 28.60643 | 129.20956 | 38084 ft | 459 kts | 207° |
| 2026-04-28 15:20 | 28.54716 | 129.18373 | 38095 ft | 459 kts | 207° |
| 2026-04-28 15:20 | 28.48827 | 129.15809 | 38092 ft | 459 kts | 207° |
| 2026-04-28 15:21 | 28.42852 | 129.13210 | 38085 ft | 459 kts | 207° |
| 2026-04-28 15:21 | 28.37967 | 129.11082 | 38081 ft | 459 kts | 207° |
| 2026-04-28 15:22 | 28.31993 | 129.08480 | 38089 ft | 460 kts | 207° |
| 2026-04-28 15:22 | 28.26014 | 129.05880 | 38088 ft | 460 kts | 207° |
| 2026-04-28 15:23 | 28.20042 | 129.03285 | 38088 ft | 460 kts | 206° |
| 2026-04-28 15:23 | 28.14058 | 129.00678 | 38089 ft | 460 kts | 207° |
| 2026-04-28 15:24 | 28.08158 | 128.97992 | 38087 ft | 459 kts | 207° |
| 2026-04-28 15:24 | 28.02325 | 128.95315 | 38090 ft | 459 kts | 207° |
| 2026-04-28 15:25 | 27.96385 | 128.92608 | 38093 ft | 460 kts | 207° |
| 2026-04-28 15:25 | 27.90523 | 128.89948 | 38093 ft | 460 kts | 207° |
| 2026-04-28 15:26 | 27.84543 | 128.87345 | 38089 ft | 461 kts | 206° |
| 2026-04-28 15:26 | 27.78527 | 128.84815 | 38093 ft | 461 kts | 206° |
| 2026-04-28 15:27 | 27.72505 | 128.82273 | 38090 ft | 461 kts | 206° |
| 2026-04-28 15:27 | 27.66494 | 128.79724 | 38087 ft | 461 kts | 206° |
| 2026-04-28 15:28 | 27.60489 | 128.77175 | 38081 ft | 461 kts | 206° |
| 2026-04-28 15:28 | 27.54476 | 128.74627 | 38072 ft | 460 kts | 206° |
| 2026-04-28 15:29 | 27.48563 | 128.72127 | 38067 ft | 454 kts | 206° |
| 2026-04-28 15:29 | 27.45725 | 128.70649 | 38073 ft | 446 kts | 217° |
| 2026-04-28 15:29 | 27.43257 | 128.68574 | 37734 ft | 443 kts | 227° |
| 2026-04-28 15:29 | 27.41190 | 128.66034 | 37095 ft | 436 kts | 238° |
| 2026-04-28 15:30 | 27.39604 | 128.63153 | 36374 ft | 431 kts | 243° |
| 2026-04-28 15:30 | 27.38110 | 128.60233 | 35557 ft | 432 kts | 243° |
| 2026-04-28 15:30 | 27.36608 | 128.57289 | 34689 ft | 435 kts | 243° |
| 2026-04-28 15:30 | 27.35086 | 128.54326 | 33740 ft | 439 kts | 243° |
| 2026-04-28 15:31 | 27.33535 | 128.51339 | 32709 ft | 443 kts | 242° |
| 2026-04-28 15:31 | 27.31968 | 128.48346 | 31704 ft | 445 kts | 242° |
| 2026-04-28 15:31 | 27.30389 | 128.45346 | 30648 ft | 447 kts | 241° |
| 2026-04-28 15:31 | 27.28793 | 128.42321 | 29450 ft | 450 kts | 241° |
| 2026-04-28 15:32 | 27.27195 | 128.39295 | 28209 ft | 450 kts | 240° |
| 2026-04-28 15:32 | 27.25615 | 128.36307 | 27033 ft | 449 kts | 240° |
| 2026-04-28 15:32 | 27.24056 | 128.33361 | 25917 ft | 447 kts | 240° |
| 2026-04-28 15:32 | 27.22474 | 128.30370 | 24829 ft | 444 kts | 240° |
| 2026-04-28 15:33 | 27.20905 | 128.27406 | 23815 ft | 439 kts | 239° |
| 2026-04-28 15:33 | 27.19350 | 128.24470 | 22702 ft | 434 kts | 239° |
| 2026-04-28 15:33 | 27.17821 | 128.21584 | 21701 ft | 426 kts | 239° |
| 2026-04-28 15:33 | 27.16334 | 128.18779 | 20765 ft | 419 kts | 239° |
| 2026-04-28 15:34 | 27.14856 | 128.15994 | 19857 ft | 412 kts | 239° |
| 2026-04-28 15:34 | 27.13399 | 128.13248 | 18960 ft | 406 kts | 239° |
| 2026-04-28 15:34 | 27.11957 | 128.10535 | 18077 ft | 402 kts | 239° |
| 2026-04-28 15:34 | 27.10542 | 128.07887 | 17529 ft | 389 kts | 239° |
| 2026-04-28 15:35 | 27.09129 | 128.05254 | 17043 ft | 401 kts | 239° |
| 2026-04-28 15:35 | 27.06267 | 127.99922 | 16061 ft | 403 kts | 239° |
| 2026-04-28 15:35 | 27.04823 | 127.97232 | 15573 ft | 401 kts | 239° |
| 2026-04-28 15:36 | 27.03384 | 127.94552 | 15089 ft | 400 kts | 239° |
| 2026-04-28 15:36 | 27.01914 | 127.91904 | 14603 ft | 399 kts | 234° |
| 2026-04-28 15:36 | 26.99972 | 127.89698 | 14116 ft | 399 kts | 217° |
| 2026-04-28 15:36 | 26.97601 | 127.88150 | 13618 ft | 399 kts | 208° |
| 2026-04-28 15:37 | 26.95130 | 127.86766 | 13100 ft | 396 kts | 207° |
| 2026-04-28 15:37 | 26.92667 | 127.85410 | 12604 ft | 389 kts | 207° |
| 2026-04-28 15:37 | 26.90277 | 127.84088 | 12071 ft | 376 kts | 207° |
| 2026-04-28 15:37 | 26.87983 | 127.82806 | 11606 ft | 362 kts | 207° |
| 2026-04-28 15:38 | 26.85771 | 127.81559 | 11167 ft | 350 kts | 208° |
| 2026-04-28 15:38 | 26.83634 | 127.80348 | 10746 ft | 339 kts | 208° |
| 2026-04-28 15:38 | 26.81555 | 127.79167 | 10348 ft | 330 kts | 208° |
| 2026-04-28 15:38 | 26.79527 | 127.78013 | 9958 ft | 323 kts | 208° |
| 2026-04-28 15:39 | 26.77582 | 127.76906 | 9704 ft | 308 kts | 208° |
| 2026-04-28 15:39 | 26.75664 | 127.75814 | 9176 ft | 307 kts | 208° |
| 2026-04-28 15:39 | 26.73775 | 127.74739 | 8769 ft | 302 kts | 208° |
| 2026-04-28 15:39 | 26.71920 | 127.73685 | 8390 ft | 296 kts | 208° |
| 2026-04-28 15:40 | 26.70116 | 127.72661 | 8031 ft | 291 kts | 208° |
| 2026-04-28 15:40 | 26.68322 | 127.71643 | 7675 ft | 286 kts | 208° |
| 2026-04-28 15:40 | 26.66557 | 127.70642 | 7331 ft | 282 kts | 208° |
| 2026-04-28 15:40 | 26.64818 | 127.69658 | 6990 ft | 279 kts | 207° |
| 2026-04-28 15:41 | 26.63097 | 127.68685 | 6648 ft | 275 kts | 207° |
| 2026-04-28 15:41 | 26.61395 | 127.67722 | 6302 ft | 272 kts | 207° |
| 2026-04-28 15:41 | 26.59708 | 127.66767 | 5946 ft | 270 kts | 207° |
| 2026-04-28 15:41 | 26.58044 | 127.65826 | 5610 ft | 267 kts | 207° |
| 2026-04-28 15:42 | 26.56416 | 127.64905 | 5281 ft | 264 kts | 207° |
| 2026-04-28 15:42 | 26.54792 | 127.63987 | 4952 ft | 256 kts | 207° |
| 2026-04-28 15:42 | 26.53271 | 127.63128 | 4629 ft | 247 kts | 206° |
| 2026-04-28 15:42 | 26.51769 | 127.62280 | 4322 ft | 238 kts | 206° |
| 2026-04-28 15:43 | 26.50316 | 127.61473 | 4040 ft | 229 kts | 201° |
| 2026-04-28 15:43 | 26.48779 | 127.61229 | 3767 ft | 221 kts | 176° |
| 2026-04-28 15:43 | 26.47265 | 127.61365 | 3508 ft | 216 kts | 174° |
| 2026-04-28 15:43 | 26.45784 | 127.61507 | 3239 ft | 211 kts | 174° |
| 2026-04-28 15:44 | 26.44344 | 127.61644 | 2976 ft | 205 kts | 174° |
| 2026-04-28 15:44 | 26.42931 | 127.61778 | 2727 ft | 201 kts | 174° |
| 2026-04-28 15:44 | 26.41552 | 127.61908 | 2478 ft | 198 kts | 174° |
| 2026-04-28 15:44 | 26.40198 | 127.62034 | 2262 ft | 190 kts | 174° |
| 2026-04-28 15:45 | 26.38908 | 127.62153 | 2027 ft | 181 kts | 174° |
| 2026-04-28 15:45 | 26.37695 | 127.62264 | 1807 ft | 173 kts | 174° |
| 2026-04-28 15:45 | 26.36544 | 127.62369 | 1596 ft | 160 kts | 174° |
| 2026-04-28 15:45 | 26.35463 | 127.62468 | 1384 ft | 152 kts | 173° |
| 2026-04-28 15:46 | 26.34401 | 127.62567 | 1266 ft | 154 kts | 174° |
| 2026-04-28 15:46 | 26.33343 | 127.62630 | 1212 ft | 151 kts | 176° |
| 2026-04-28 15:46 | 26.32329 | 127.62676 | 1198 ft | 142 kts | 176° |
| 2026-04-28 15:46 | 26.31351 | 127.62722 | 1195 ft | 140 kts | 176° |
| 2026-04-28 15:47 | 26.30386 | 127.62767 | 1203 ft | 135 kts | 176° |
| 2026-04-28 15:47 | 26.29458 | 127.62809 | 1175 ft | 131 kts | 176° |
| 2026-04-28 15:47 | 26.28544 | 127.62853 | 1178 ft | 132 kts | 176° |
| 2026-04-28 15:47 | 26.27617 | 127.62896 | 1184 ft | 134 kts | 176° |
| 2026-04-28 15:48 | 26.26688 | 127.62940 | 1181 ft | 135 kts | 176° |
| 2026-04-28 15:48 | 26.25728 | 127.62985 | 1049 ft | 137 kts | 176° |
| 2026-04-28 15:48 | 26.24795 | 127.63029 | 889 ft | 132 kts | 176° |
| 2026-04-28 15:48 | 26.23900 | 127.63072 | 721 ft | 129 kts | 175° |
| 2026-04-28 15:49 | 26.22998 | 127.63114 | 561 ft | 130 kts | 176° |
| 2026-04-28 15:49 | 26.22092 | 127.63158 | 386 ft | 130 kts | 174° |
| 2026-04-28 15:49 | 26.21178 | 127.63207 | 262 ft | 131 kts | 174° |
| 2026-04-28 15:49 | 26.20266 | 127.63246 | 69 ft | 132 kts | 174° |
| 2026-04-28 15:50 | 26.19393 | 127.63287 | 16 ft | 110 kts | 178° |
| 2026-04-28 15:50 | 26.18844 | 127.63324 | 14 ft | 47 kts | 166° |
| 2026-04-28 15:50 | 26.18646 | 127.63440 | 18 ft | 19 kts | 129° |
| 2026-04-28 15:50 | 26.18664 | 127.63500 | 17 ft | 9 kts | 23° |
| 2026-04-28 15:51 | 26.18762 | 127.63504 | 16 ft | 21 kts | 358° |
| 2026-04-28 15:51 | 26.18954 | 127.63495 | 16 ft | 34 kts | 358° |
| 2026-04-28 15:51 | 26.19224 | 127.63483 | 16 ft | 43 kts | 358° |
| 2026-04-28 15:51 | 26.19528 | 127.63468 | 16 ft | 43 kts | 357° |
| 2026-04-28 15:52 | 26.19825 | 127.63454 | 16 ft | 42 kts | 357° |
| 2026-04-28 15:52 | 26.20111 | 127.63440 | 16 ft | 41 kts | 358° |
| 2026-04-28 15:52 | 26.20294 | 127.63470 | 16 ft | 16 kts | 65° |
| 2026-04-28 15:52 | 26.20306 | 127.63601 | 17 ft | 20 kts | 88° |
| 2026-04-28 15:53 | 26.20312 | 127.63779 | 16 ft | 27 kts | 87° |
| 2026-04-28 15:53 | 26.20322 | 127.64010 | 16 ft | 33 kts | 88° |
| 2026-04-28 15:53 | 26.20332 | 127.64281 | 16 ft | 36 kts | 87° |
| 2026-04-28 15:53 | 26.20342 | 127.64556 | 17 ft | 35 kts | 87° |
| 2026-04-28 15:54 | 26.20349 | 127.64754 | 18 ft | 17 kts | 87° |
| 2026-04-28 15:54 | 26.20356 | 127.64877 | 20 ft | 14 kts | 75° |
| 2026-04-28 15:54 | 26.20403 | 127.64917 | 20 ft | 6 kts | 27° |
| 2026-04-28 15:54 | 26.20433 | 127.64934 | 21 ft | 3 kts | 28° |
| 2026-04-28 15:55 | 26.20442 | 127.64939 | 21 ft | 0 kts | 27° |